createdAt,value
2023-03-06T00:00:19.890Z,1.99
2023-03-06T00:01:09.082Z,1.99
2023-03-06T00:01:49.098Z,2.00
2023-03-06T00:02:53.353Z,2.04
2023-03-06T00:03:31.786Z,2.08
2023-03-06T00:04:11.167Z,2.11
2023-03-06T00:04:50.258Z,2.12
2023-03-06T00:05:37.059Z,2.17
2023-03-06T00:06:16.261Z,2.21
2023-03-06T00:07:03.038Z,2.24
2023-03-06T00:08:06.986Z,2.27
2023-03-06T00:09:45.180Z,2.26
2023-03-06T00:10:48.562Z,2.27
2023-03-06T00:13:28.825Z,2.26
2023-03-06T00:14:33.108Z,2.26
2023-03-06T00:15:51.646Z,2.22
2023-03-06T00:17:34.166Z,2.16
2023-03-06T00:18:53.777Z,2.18
2023-03-06T00:19:37.629Z,2.12
2023-03-06T00:20:57.356Z,2.06
2023-03-06T00:22:40.068Z,1.94
2023-03-06T00:23:58.186Z,1.86
2023-03-06T00:25:38.904Z,1.91
2023-03-06T00:26:57.257Z,1.86
2023-03-06T00:29:00.002Z,1.89
2023-03-06T00:30:38.961Z,1.86
2023-03-06T00:31:18.307Z,1.86
2023-03-06T00:32:00.289Z,1.86
2023-03-06T00:32:39.597Z,1.88
2023-03-06T00:33:29.189Z,1.90
2023-03-06T00:34:33.041Z,1.87
2023-03-06T00:35:12.856Z,1.86
2023-03-06T00:35:53.258Z,1.85
2023-03-06T00:36:32.216Z,1.85
2023-03-06T00:37:14.169Z,1.80
2023-03-06T00:38:01.176Z,1.81
2023-03-06T00:38:40.216Z,1.79
2023-03-06T00:39:22.297Z,1.79
2023-03-06T00:40:02.302Z,1.74
2023-03-06T00:41:47.079Z,1.72
2023-03-06T00:43:04.373Z,1.54
2023-03-06T00:43:44.384Z,1.49
2023-03-06T00:44:24.214Z,1.48
2023-03-06T00:45:06.719Z,1.47
2023-03-06T00:46:10.632Z,1.48
2023-03-06T00:47:52.056Z,1.45
2023-03-06T00:49:53.305Z,1.47
2023-03-06T00:51:24.662Z,1.29
2023-03-06T00:52:05.207Z,1.27
2023-03-06T00:53:26.266Z,1.13
2023-03-06T00:54:46.131Z,1.05
2023-03-06T00:55:25.302Z,1.02
2023-03-06T00:56:04.342Z,0.86
2023-03-06T00:56:43.165Z,0.76
2023-03-06T00:57:25.316Z,0.68
2023-03-06T00:58:04.226Z,0.57
2023-03-06T00:58:43.297Z,0.53
2023-03-06T00:59:30.052Z,0.41
2023-03-06T01:00:17.320Z,0.37
2023-03-06T01:00:56.322Z,0.38
2023-03-06T01:01:38.342Z,0.32
2023-03-06T01:02:18.610Z,0.30
2023-03-06T01:02:57.783Z,0.30
2023-03-06T01:03:40.300Z,0.28
2023-03-06T01:04:22.834Z,0.26
2023-03-06T01:05:06.734Z,0.28
2023-03-06T01:05:46.171Z,0.25
2023-03-06T01:06:33.435Z,0.22
2023-03-06T01:07:12.353Z,0.19
2023-03-06T01:07:55.285Z,0.15
2023-03-06T01:08:34.795Z,0.13
2023-03-06T01:09:38.632Z,0.14
2023-03-06T01:10:27.342Z,0.08
2023-03-06T01:11:07.239Z,0.07
2023-03-06T01:12:11.028Z,0.08
2023-03-06T01:12:58.404Z,0.03
2023-03-06T01:13:37.230Z,0.02
2023-03-06T01:14:16.279Z,0.06
2023-03-06T01:15:34.598Z,0.02
2023-03-06T01:16:18.913Z,-0.01
2023-03-06T01:17:39.719Z,-0.01
2023-03-06T01:18:19.000Z,-0.04
2023-03-06T01:18:59.734Z,-0.04
2023-03-06T01:20:18.456Z,-0.09
2023-03-06T01:21:37.404Z,-0.09
2023-03-06T01:22:16.909Z,-0.08
2023-03-06T01:22:56.762Z,0.01
2023-03-06T01:23:37.262Z,-0.05
2023-03-06T01:25:06.800Z,-0.01
2023-03-06T01:25:47.467Z,-0.04
2023-03-06T01:27:08.250Z,-0.03
2023-03-06T01:27:55.155Z,-0.03
2023-03-06T01:28:35.318Z,-0.07
2023-03-06T01:29:15.418Z,-0.06
2023-03-06T01:30:54.950Z,0.04
2023-03-06T01:33:02.041Z,-0.02
2023-03-06T01:33:42.222Z,0.02
2023-03-06T01:34:21.825Z,0.05
2023-03-06T01:35:09.788Z,0.06
2023-03-06T01:37:04.897Z,0.02
2023-03-06T01:40:42.431Z,-0.16
2023-03-06T01:42:03.850Z,-0.07
2023-03-06T01:42:53.076Z,-0.04
2023-03-06T01:43:37.949Z,-0.02
2023-03-06T01:44:27.119Z,0.00
2023-03-06T01:45:29.075Z,-0.03
2023-03-06T01:46:17.023Z,-0.03
2023-03-06T01:47:37.307Z,-0.06
2023-03-06T01:48:21.507Z,-0.01
2023-03-06T01:49:22.320Z,-0.01
2023-03-06T01:51:05.373Z,-0.05
2023-03-06T01:52:55.812Z,-0.13
2023-03-06T01:53:40.104Z,-0.17
2023-03-06T01:56:05.356Z,-0.19
2023-03-06T01:56:43.906Z,-0.18
2023-03-06T01:57:45.186Z,-0.20
2023-03-06T01:59:03.227Z,-0.14
2023-03-06T01:59:44.275Z,-0.13
2023-03-06T02:00:29.264Z,-0.09
2023-03-06T02:01:33.222Z,-0.05
2023-03-06T02:02:11.846Z,-0.01
2023-03-06T02:03:18.977Z,0.02
2023-03-06T02:04:40.475Z,0.08
2023-03-06T02:06:09.378Z,0.10
2023-03-06T02:07:21.287Z,0.14
2023-03-06T02:08:02.424Z,0.17
2023-03-06T02:08:42.384Z,0.20
2023-03-06T02:09:21.191Z,0.21
2023-03-06T02:10:00.307Z,0.26
2023-03-06T02:10:42.919Z,0.32
2023-03-06T02:11:24.964Z,0.34
2023-03-06T02:12:12.092Z,0.36
2023-03-06T02:12:52.327Z,0.37
2023-03-06T02:13:30.885Z,0.41
2023-03-06T02:14:10.284Z,0.45
2023-03-06T02:14:50.201Z,0.47
2023-03-06T02:16:13.282Z,0.51
2023-03-06T02:17:01.787Z,0.57
2023-03-06T02:18:05.587Z,0.60
2023-03-06T02:18:46.778Z,0.62
2023-03-06T02:19:45.706Z,0.63
2023-03-06T02:20:48.810Z,0.65
2023-03-06T02:22:09.007Z,0.68
2023-03-06T02:22:48.970Z,0.67
2023-03-06T02:23:27.807Z,0.68
2023-03-06T02:24:19.029Z,0.67
2023-03-06T02:25:47.681Z,0.65
2023-03-06T02:26:29.554Z,0.64
2023-03-06T02:27:12.516Z,0.64
2023-03-06T02:28:32.444Z,0.74
2023-03-06T02:30:11.095Z,0.70
2023-03-06T02:31:00.279Z,0.66
2023-03-06T02:31:40.244Z,0.67
2023-03-06T02:32:19.478Z,0.71
2023-03-06T02:32:58.969Z,0.72
2023-03-06T02:33:39.345Z,0.70
2023-03-06T02:34:28.047Z,0.74
2023-03-06T02:35:20.431Z,0.74
2023-03-06T02:36:02.657Z,0.76
2023-03-06T02:36:52.335Z,0.77
2023-03-06T02:37:32.208Z,0.75
2023-03-06T02:38:16.003Z,0.77
2023-03-06T02:47:45.968Z,0.68
2023-03-06T02:48:24.637Z,0.69
2023-03-06T02:49:03.945Z,0.66
2023-03-06T02:49:42.937Z,0.63
2023-03-06T02:50:23.275Z,0.63
2023-03-06T02:51:03.086Z,0.54
2023-03-06T02:51:41.904Z,0.47
2023-03-06T02:52:33.814Z,0.44
2023-03-06T02:53:15.024Z,0.43
2023-03-06T02:53:54.590Z,0.34
2023-03-06T02:54:33.610Z,0.38
2023-03-06T02:55:16.696Z,0.37
2023-03-06T02:58:12.202Z,0.50
2023-03-06T02:58:51.667Z,0.54
2023-03-06T02:59:38.844Z,0.57
2023-03-06T03:02:55.157Z,0.58
2023-03-06T03:04:12.996Z,0.58
2023-03-06T03:04:52.714Z,0.58
2023-03-06T03:05:32.032Z,0.58
2023-03-06T03:06:13.981Z,0.64
2023-03-06T03:07:02.714Z,0.65
2023-03-06T03:08:06.419Z,0.62
2023-03-06T03:09:25.632Z,0.58
2023-03-06T03:10:05.553Z,0.59
2023-03-06T03:11:36.187Z,0.63
2023-03-06T03:12:55.598Z,0.58
2023-03-06T03:13:36.518Z,0.61
2023-03-06T03:15:02.220Z,0.64
2023-03-06T03:15:41.463Z,0.64
2023-03-06T03:16:58.717Z,0.66
2023-03-06T03:18:02.594Z,0.71
2023-03-06T03:19:35.617Z,0.76
2023-03-06T03:20:21.222Z,0.76
2023-03-06T03:21:09.591Z,0.81
2023-03-06T03:21:49.717Z,0.83
2023-03-06T03:22:28.033Z,0.83
2023-03-06T03:23:06.701Z,0.77
2023-03-06T03:23:53.782Z,0.80
2023-03-06T03:25:33.829Z,0.85
2023-03-06T03:26:19.350Z,0.89
2023-03-06T03:27:39.737Z,0.90
2023-03-06T03:28:22.011Z,0.92
2023-03-06T03:29:00.672Z,0.93
2023-03-06T03:29:39.493Z,0.94
2023-03-06T03:30:21.680Z,0.93
2023-03-06T03:31:25.889Z,0.95
2023-03-06T03:32:05.754Z,0.99
2023-03-06T03:33:26.212Z,0.98
2023-03-06T03:34:44.045Z,0.97
2023-03-06T03:36:08.322Z,0.97
2023-03-06T03:36:47.759Z,0.94
2023-03-06T03:37:28.235Z,0.93
2023-03-06T03:38:07.667Z,0.93
2023-03-06T03:38:47.224Z,0.93
2023-03-06T03:39:26.652Z,0.94
2023-03-06T03:40:30.564Z,0.94
2023-03-06T03:42:01.497Z,0.93
2023-03-06T03:42:42.119Z,0.88
2023-03-06T03:44:16.178Z,0.89
2023-03-06T03:45:35.224Z,0.88
2023-03-06T03:46:14.706Z,0.90
2023-03-06T03:46:55.012Z,0.89
2023-03-06T03:47:34.500Z,0.93
2023-03-06T03:48:14.184Z,0.93
2023-03-06T03:48:53.774Z,0.92
2023-03-06T03:49:33.053Z,0.96
2023-03-06T03:50:12.191Z,0.95
2023-03-06T03:52:34.035Z,0.88
2023-03-06T03:53:13.005Z,0.86
2023-03-06T03:53:51.696Z,0.92
2023-03-06T03:55:23.843Z,0.91
2023-03-06T03:56:03.913Z,0.99
2023-03-06T03:58:00.990Z,0.92
2023-03-06T04:00:39.798Z,0.94
2023-03-06T04:01:20.000Z,1.00
2023-03-06T04:01:59.672Z,0.95
2023-03-06T04:02:38.712Z,0.93
2023-03-06T04:03:21.161Z,0.92
2023-03-06T04:04:01.675Z,0.92
2023-03-06T04:04:42.256Z,0.98
2023-03-06T04:05:22.524Z,0.97
2023-03-06T04:07:20.650Z,0.96
2023-03-06T04:08:37.898Z,0.98
2023-03-06T04:09:18.008Z,0.98
2023-03-06T04:09:58.626Z,1.03
2023-03-06T04:10:37.544Z,1.01
2023-03-06T04:11:16.661Z,1.08
2023-03-06T04:11:55.974Z,1.02
2023-03-06T04:12:35.845Z,1.05
2023-03-06T04:13:15.010Z,1.04
2023-03-06T04:13:55.273Z,1.02
2023-03-06T04:14:35.896Z,0.97
2023-03-06T04:15:24.974Z,0.95
2023-03-06T04:16:05.584Z,0.94
2023-03-06T04:16:45.987Z,0.98
2023-03-06T04:18:13.790Z,0.93
2023-03-06T04:18:54.330Z,0.97
2023-03-06T04:19:37.320Z,0.93
2023-03-06T04:20:17.144Z,0.99
2023-03-06T04:20:56.087Z,1.07
2023-03-06T04:21:35.895Z,1.12
2023-03-06T04:22:15.868Z,1.14
2023-03-06T04:22:55.009Z,1.11
2023-03-06T04:23:34.111Z,1.11
2023-03-06T04:24:14.154Z,1.12
2023-03-06T04:24:53.128Z,1.09
2023-03-06T04:25:30.954Z,1.08
2023-03-06T04:26:18.902Z,1.06
2023-03-06T04:28:48.096Z,1.11
2023-03-06T04:29:30.042Z,1.09
2023-03-06T04:31:03.087Z,1.08
2023-03-06T04:33:30.026Z,1.12
2023-03-06T04:34:09.903Z,1.18
2023-03-06T04:34:50.069Z,1.25
2023-03-06T04:35:32.727Z,1.25
2023-03-06T04:36:34.702Z,1.26
2023-03-06T04:37:22.961Z,1.24
2023-03-06T04:38:02.507Z,1.25
2023-03-06T04:38:41.556Z,1.29
2023-03-06T04:39:20.895Z,1.31
2023-03-06T04:40:00.005Z,1.31
2023-03-06T04:40:39.144Z,1.35
2023-03-06T04:41:17.999Z,1.40
2023-03-06T04:41:58.094Z,1.41
2023-03-06T04:42:37.978Z,1.41
2023-03-06T04:43:24.927Z,1.38
2023-03-06T04:44:13.797Z,1.34
2023-03-06T04:45:44.203Z,1.33
2023-03-06T04:47:43.561Z,1.36
2023-03-06T04:48:22.992Z,1.38
2023-03-06T04:49:02.514Z,1.36
2023-03-06T04:49:42.154Z,1.36
2023-03-06T04:51:07.782Z,1.40
2023-03-06T04:51:48.036Z,1.34
2023-03-06T04:52:34.305Z,1.38
2023-03-06T04:53:22.742Z,1.37
2023-03-06T04:54:05.643Z,1.35
2023-03-06T04:54:46.244Z,1.38
2023-03-06T04:56:06.940Z,1.33
2023-03-06T04:56:46.912Z,1.31
2023-03-06T04:57:28.938Z,1.34
2023-03-06T04:58:07.995Z,1.35
2023-03-06T04:58:47.271Z,1.33
2023-03-06T04:59:26.975Z,1.36
2023-03-06T05:00:13.188Z,1.31
2023-03-06T05:00:55.123Z,1.29
2023-03-06T05:01:34.212Z,1.28
2023-03-06T05:02:25.843Z,1.23
2023-03-06T05:03:08.956Z,1.32
2023-03-06T05:03:51.002Z,1.28
2023-03-06T05:04:29.907Z,1.32
2023-03-06T05:05:17.516Z,1.32
2023-03-06T05:06:00.159Z,1.35
2023-03-06T05:06:39.054Z,1.35
2023-03-06T05:07:20.936Z,1.38
2023-03-06T05:08:00.105Z,1.39
2023-03-06T05:08:39.142Z,1.32
2023-03-06T05:09:30.819Z,1.35
2023-03-06T05:10:13.637Z,1.30
2023-03-06T05:10:57.980Z,1.31
2023-03-06T05:11:38.471Z,1.37
2023-03-06T05:12:42.981Z,1.48
2023-03-06T05:14:09.891Z,1.48
2023-03-06T05:14:48.662Z,1.56
2023-03-06T05:15:30.978Z,1.59
2023-03-06T05:16:09.975Z,1.60
2023-03-06T05:16:49.092Z,1.62
2023-03-06T05:17:31.695Z,1.61
2023-03-06T05:18:10.899Z,1.61
2023-03-06T05:18:50.753Z,1.54
2023-03-06T05:19:37.831Z,1.54
2023-03-06T05:20:17.435Z,1.56
2023-03-06T05:22:36.139Z,1.70
2023-03-06T05:23:18.936Z,1.71
2023-03-06T05:24:00.965Z,1.68
2023-03-06T05:24:40.202Z,1.70
2023-03-06T05:25:28.874Z,1.69
2023-03-06T05:26:32.553Z,1.67
2023-03-06T05:27:11.662Z,1.68
2023-03-06T05:27:51.226Z,1.72
2023-03-06T05:28:31.250Z,1.76
2023-03-06T05:29:11.427Z,1.71
2023-03-06T05:29:50.946Z,1.72
2023-03-06T05:30:54.497Z,1.79
2023-03-06T05:31:34.761Z,1.79
2023-03-06T05:33:00.248Z,1.76
2023-03-06T05:33:40.092Z,1.75
2023-03-06T05:34:19.060Z,1.75
2023-03-06T05:34:59.047Z,1.71
2023-03-06T05:35:49.674Z,1.70
2023-03-06T05:36:30.553Z,1.67
2023-03-06T05:37:10.749Z,1.68
2023-03-06T05:37:50.946Z,1.68
2023-03-06T05:38:29.189Z,1.62
2023-03-06T05:39:08.216Z,1.62
2023-03-06T05:39:47.378Z,1.65
2023-03-06T05:40:31.408Z,1.65
2023-03-06T05:41:51.262Z,1.68
2023-03-06T05:42:32.524Z,1.72
2023-03-06T05:43:39.763Z,1.75
2023-03-06T05:44:20.188Z,1.80
2023-03-06T05:44:58.767Z,1.77
2023-03-06T05:45:39.274Z,1.73
2023-03-06T05:46:17.994Z,1.67
2023-03-06T05:46:57.137Z,1.67
2023-03-06T05:47:45.123Z,1.67
2023-03-06T05:48:24.937Z,1.68
2023-03-06T05:49:04.364Z,1.66
2023-03-06T05:49:47.068Z,1.70
2023-03-06T05:50:27.776Z,1.78
2023-03-06T05:51:09.665Z,1.80
2023-03-06T05:51:50.215Z,1.81
2023-03-06T05:52:29.640Z,1.83
2023-03-06T05:53:08.044Z,1.79
2023-03-06T05:55:12.555Z,1.88
2023-03-06T05:55:59.041Z,1.93
2023-03-06T05:57:03.067Z,1.87
2023-03-06T05:58:33.653Z,1.92
2023-03-06T05:59:16.247Z,1.98
2023-03-06T06:00:38.048Z,1.99
2023-03-06T06:01:19.378Z,1.98
2023-03-06T06:03:16.797Z,2.00
2023-03-06T06:03:56.002Z,2.04
2023-03-06T06:04:38.000Z,2.12
2023-03-06T06:05:56.136Z,2.18
2023-03-06T06:07:16.782Z,2.24
2023-03-06T06:08:34.117Z,2.39
2023-03-06T06:09:22.670Z,2.36
2023-03-06T06:10:03.825Z,2.29
2023-03-06T06:10:43.092Z,2.23
2023-03-06T06:11:22.097Z,2.20
2023-03-06T06:12:04.368Z,2.21
2023-03-06T06:12:51.276Z,2.20
2023-03-06T06:13:41.125Z,2.25
2023-03-06T06:14:29.504Z,2.27
2023-03-06T06:15:18.582Z,2.17
2023-03-06T06:16:22.156Z,2.17
2023-03-06T06:17:12.650Z,2.10
2023-03-06T06:19:18.755Z,2.26
2023-03-06T06:19:57.792Z,2.21
2023-03-06T06:20:37.689Z,2.21
2023-03-06T06:23:03.133Z,2.26
2023-03-06T06:24:27.073Z,2.35
2023-03-06T06:26:24.099Z,2.24
2023-03-06T06:28:06.753Z,2.25
2023-03-06T06:29:13.840Z,2.25
2023-03-06T06:30:08.348Z,2.24
2023-03-06T06:31:26.292Z,2.23
2023-03-06T06:32:33.894Z,2.39
2023-03-06T06:34:28.429Z,2.34
2023-03-06T06:35:35.334Z,2.29
2023-03-06T06:37:02.021Z,2.36
2023-03-06T06:38:06.575Z,2.47
2023-03-06T06:42:26.126Z,2.56
2023-03-06T06:42:58.566Z,2.58
2023-03-06T06:43:43.725Z,2.68
2023-03-06T06:45:05.712Z,2.71
2023-03-06T06:45:49.558Z,2.69
2023-03-06T06:47:21.915Z,2.81
2023-03-06T06:48:38.758Z,2.83
2023-03-06T06:49:30.077Z,2.88
2023-03-06T06:50:11.229Z,2.93
2023-03-06T06:51:14.402Z,2.76
2023-03-06T06:54:04.632Z,2.88
2023-03-06T06:55:09.966Z,2.95
2023-03-06T06:57:22.063Z,3.10
2023-03-06T06:58:26.318Z,3.11
2023-03-06T06:59:19.081Z,3.06
2023-03-06T07:00:01.050Z,3.12
2023-03-06T07:00:41.068Z,3.09
2023-03-06T07:01:44.926Z,3.13
2023-03-06T07:03:49.753Z,3.17
2023-03-06T07:06:09.312Z,3.25
2023-03-06T07:07:12.797Z,3.33
2023-03-06T07:08:33.631Z,3.24
2023-03-06T07:09:39.921Z,3.28
2023-03-06T07:11:21.961Z,3.22
2023-03-06T07:12:01.632Z,3.22
2023-03-06T07:13:05.860Z,3.22
2023-03-06T07:15:36.469Z,3.15
2023-03-06T07:16:20.477Z,3.22
2023-03-06T07:17:34.702Z,3.18
2023-03-06T07:19:44.929Z,3.30
2023-03-06T07:20:17.866Z,3.36
2023-03-06T07:20:49.636Z,3.40
2023-03-06T07:21:22.494Z,3.42
2023-03-06T07:21:55.013Z,3.37
2023-03-06T07:22:27.541Z,3.38
2023-03-06T07:23:16.944Z,3.47
2023-03-06T07:25:55.955Z,3.45
2023-03-06T07:27:16.088Z,3.42
2023-03-06T07:28:03.051Z,3.48
2023-03-06T07:29:10.844Z,3.39
2023-03-06T07:29:50.335Z,3.37
2023-03-06T07:30:56.874Z,3.41
2023-03-06T07:31:50.800Z,3.39
2023-03-06T07:32:34.580Z,3.45
2023-03-06T07:33:27.000Z,3.50
2023-03-06T07:34:19.816Z,3.55
2023-03-06T07:35:20.014Z,3.48
2023-03-06T07:36:35.174Z,3.38
2023-03-06T07:37:40.034Z,3.40
2023-03-06T07:43:52.684Z,3.55
2023-03-06T07:44:56.748Z,3.70
2023-03-06T07:46:37.236Z,3.50
2023-03-06T07:48:30.729Z,3.49
2023-03-06T07:50:14.665Z,3.76
2023-03-06T07:51:49.085Z,3.83
2023-03-06T07:52:28.087Z,3.85
2023-03-06T07:53:32.026Z,3.88
2023-03-06T07:55:54.031Z,4.17
2023-03-06T07:57:37.999Z,4.16
2023-03-06T07:58:57.092Z,4.24
2023-03-06T08:00:29.080Z,4.35
2023-03-06T08:01:14.284Z,4.24
2023-03-06T08:01:55.941Z,4.28
2023-03-06T08:03:38.542Z,4.44
2023-03-06T08:05:00.072Z,4.52
2023-03-06T08:06:32.969Z,4.58
2023-03-06T08:07:13.595Z,4.56
2023-03-06T08:08:33.867Z,4.70
2023-03-06T08:09:13.108Z,4.49
2023-03-06T08:09:52.291Z,4.64
2023-03-06T08:10:35.493Z,4.63
2023-03-06T08:11:16.865Z,4.63
2023-03-06T08:12:20.664Z,4.72
2023-03-06T08:13:24.145Z,4.68
2023-03-06T08:14:27.444Z,4.94
2023-03-06T08:16:01.171Z,5.05
2023-03-06T08:16:40.131Z,5.00
2023-03-06T08:17:22.048Z,5.00
2023-03-06T08:18:02.605Z,4.97
2023-03-06T08:18:46.824Z,5.04
2023-03-06T08:20:32.224Z,5.17
2023-03-06T08:21:24.900Z,5.16
2023-03-06T08:22:06.086Z,5.16
2023-03-06T08:22:46.075Z,5.27
2023-03-06T08:23:50.092Z,5.05
2023-03-06T08:25:11.822Z,5.25
2023-03-06T08:26:42.334Z,5.56
2023-03-06T08:27:24.306Z,5.62
2023-03-06T08:28:03.223Z,5.51
2023-03-06T08:29:08.264Z,5.48
2023-03-06T08:30:27.038Z,5.51
2023-03-06T08:31:19.789Z,5.46
2023-03-06T08:32:00.310Z,5.47
2023-03-06T08:32:42.388Z,5.41
2023-03-06T08:33:25.609Z,5.32
2023-03-06T08:34:09.756Z,5.40
2023-03-06T08:34:49.064Z,5.53
2023-03-06T08:35:30.429Z,5.49
2023-03-06T08:36:11.227Z,5.40
2023-03-06T08:38:09.104Z,5.37
2023-03-06T08:38:47.985Z,5.35
2023-03-06T08:39:28.226Z,5.39
2023-03-06T08:40:34.624Z,5.46
2023-03-06T08:44:47.504Z,5.75
2023-03-06T08:45:51.790Z,5.80
2023-03-06T08:46:34.123Z,5.98
2023-03-06T08:47:54.657Z,5.88
2023-03-06T08:48:44.248Z,5.99
2023-03-06T08:49:48.134Z,6.11
2023-03-06T08:52:22.706Z,5.98
2023-03-06T08:53:12.322Z,6.36
2023-03-06T08:55:12.918Z,6.31
2023-03-06T08:55:56.136Z,6.26
2023-03-06T08:56:35.303Z,6.37
2023-03-06T08:57:15.434Z,6.40
2023-03-06T08:57:58.818Z,6.23
2023-03-06T08:59:03.961Z,6.36
2023-03-06T09:00:23.663Z,6.55
2023-03-06T09:01:27.395Z,6.42
2023-03-06T09:02:15.683Z,6.71
2023-03-06T09:04:57.263Z,6.99
2023-03-06T09:06:29.689Z,7.05
2023-03-06T09:08:01.155Z,6.78
2023-03-06T09:09:20.428Z,6.88
2023-03-06T09:10:33.083Z,6.83
2023-03-06T09:11:14.692Z,7.06
2023-03-06T09:11:57.258Z,7.03
2023-03-06T09:12:49.856Z,7.12
2023-03-06T09:13:32.346Z,7.24
2023-03-06T09:14:12.093Z,7.20
2023-03-06T09:14:52.737Z,7.08
2023-03-06T09:15:32.478Z,7.18
2023-03-06T09:16:36.524Z,7.29
2023-03-06T09:18:18.518Z,7.08
2023-03-06T09:19:36.148Z,7.20
2023-03-06T09:20:15.587Z,7.14
2023-03-06T09:20:56.746Z,7.18
2023-03-06T09:21:36.768Z,6.88
2023-03-06T09:22:44.594Z,7.12
2023-03-06T09:24:03.480Z,7.20
2023-03-06T09:24:51.195Z,7.32
2023-03-06T09:25:56.318Z,7.22
2023-03-06T09:28:23.141Z,7.31
2023-03-06T09:29:27.055Z,7.42
2023-03-06T09:30:08.155Z,7.45
2023-03-06T09:30:48.934Z,7.38
2023-03-06T09:31:28.471Z,7.19
2023-03-06T09:33:38.670Z,7.34
2023-03-06T09:34:42.813Z,7.30
2023-03-06T09:37:23.248Z,7.14
2023-03-06T09:38:10.999Z,7.32
2023-03-06T09:41:42.042Z,7.24
2023-03-06T09:42:46.169Z,7.41
2023-03-06T09:43:32.884Z,7.53
2023-03-06T09:44:45.666Z,7.55
2023-03-06T09:47:15.331Z,7.67
2023-03-06T09:48:23.606Z,7.69
2023-03-06T09:50:45.763Z,7.75
2023-03-06T09:51:46.972Z,7.77
2023-03-06T09:53:00.182Z,7.73
2023-03-06T09:54:09.057Z,7.92
2023-03-06T09:54:57.433Z,8.15
2023-03-06T09:55:40.396Z,8.02
2023-03-06T09:56:25.084Z,7.99
2023-03-06T09:57:35.698Z,8.02
2023-03-06T09:58:15.686Z,7.93
2023-03-06T09:59:13.409Z,8.02
2023-03-06T09:59:58.809Z,7.89
2023-03-06T10:00:53.510Z,8.15
2023-03-06T10:01:42.454Z,8.12
2023-03-06T10:02:57.186Z,8.00
2023-03-06T10:04:46.419Z,7.90
2023-03-06T10:05:49.834Z,7.89
2023-03-06T10:06:50.423Z,7.94
2023-03-06T10:09:22.792Z,8.12
2023-03-06T10:10:02.713Z,8.13
2023-03-06T10:11:08.868Z,8.28
2023-03-06T10:12:41.265Z,8.28
2023-03-06T10:14:58.761Z,8.51
2023-03-06T10:15:48.356Z,8.50
2023-03-06T10:16:41.706Z,8.53
2023-03-06T10:17:23.943Z,8.51
2023-03-06T10:18:13.630Z,8.45
2023-03-06T10:19:01.340Z,8.34
2023-03-06T10:19:43.150Z,8.41
2023-03-06T10:20:48.877Z,8.48
2023-03-06T10:21:32.788Z,8.45
2023-03-06T10:22:38.862Z,8.38
2023-03-06T10:23:58.188Z,8.54
2023-03-06T10:27:13.504Z,8.76
2023-03-06T10:28:16.942Z,8.94
2023-03-06T10:29:36.732Z,9.07
2023-03-06T10:30:57.459Z,8.99
2023-03-06T10:32:11.123Z,9.22
2023-03-06T10:32:55.768Z,9.26
2023-03-06T10:33:57.663Z,9.20
2023-03-06T10:34:40.433Z,9.24
2023-03-06T10:35:30.666Z,9.32
2023-03-06T10:36:32.073Z,9.31
2023-03-06T10:37:38.820Z,9.38
2023-03-06T10:38:41.648Z,9.30
2023-03-06T10:39:49.487Z,9.00
2023-03-06T10:41:11.458Z,9.13
2023-03-06T10:42:15.700Z,9.25
2023-03-06T10:43:45.610Z,9.12
2023-03-06T10:45:06.627Z,9.27
2023-03-06T10:48:18.335Z,9.10
2023-03-06T10:49:21.014Z,9.18
2023-03-06T10:50:03.076Z,9.40
2023-03-06T10:50:46.276Z,9.43
2023-03-06T10:51:30.270Z,9.54
2023-03-06T10:52:26.237Z,9.69
2023-03-06T10:53:26.865Z,9.78
2023-03-06T10:55:34.833Z,9.70
2023-03-06T11:01:42.307Z,9.96
2023-03-06T11:02:38.711Z,10.00
2023-03-06T11:03:33.285Z,10.12
2023-03-06T11:04:21.045Z,10.08
2023-03-06T11:05:25.066Z,10.15
2023-03-06T11:06:49.475Z,10.13
2023-03-06T11:07:33.829Z,10.12
2023-03-06T11:11:02.717Z,10.15
2023-03-06T11:11:43.120Z,10.21
2023-03-06T11:13:27.997Z,10.24
2023-03-06T11:15:10.524Z,10.15
2023-03-06T11:17:29.922Z,9.91
2023-03-06T11:18:25.997Z,9.77
2023-03-06T11:19:21.059Z,9.88
2023-03-06T11:20:50.123Z,9.90
2023-03-06T11:23:35.286Z,9.96
2023-03-06T11:26:04.930Z,9.67
2023-03-06T11:27:02.782Z,9.57
2023-03-06T11:27:47.244Z,9.46
2023-03-06T11:30:58.863Z,8.64
2023-03-06T11:32:43.550Z,8.56
2023-03-06T11:33:45.664Z,8.46
2023-03-06T11:35:22.448Z,8.23
2023-03-06T11:36:31.415Z,7.96
2023-03-06T11:37:50.502Z,7.78
2023-03-06T11:38:59.641Z,7.58
2023-03-06T11:40:39.856Z,7.14
2023-03-06T11:41:52.509Z,7.00
2023-03-06T11:43:37.096Z,6.86
2023-03-06T11:45:26.328Z,6.82
2023-03-06T11:46:20.422Z,6.84
2023-03-06T11:47:15.676Z,6.90
2023-03-06T11:48:03.468Z,6.92
2023-03-06T11:50:42.536Z,7.11
2023-03-06T11:51:21.739Z,7.04
2023-03-06T11:52:23.972Z,7.11
2023-03-06T11:54:33.801Z,7.15
2023-03-06T11:55:40.658Z,7.23
2023-03-06T11:57:30.351Z,7.25
2023-03-06T11:58:27.202Z,7.38
2023-03-06T11:59:30.244Z,7.37
2023-03-06T12:00:28.709Z,7.43
2023-03-06T12:01:24.285Z,7.47
2023-03-06T12:02:57.365Z,7.44
2023-03-06T12:03:51.428Z,7.37
2023-03-06T12:05:12.637Z,7.28
2023-03-06T12:07:16.939Z,7.47
2023-03-06T12:10:14.476Z,7.57
2023-03-06T12:12:07.398Z,7.63
2023-03-06T12:13:16.860Z,7.71
2023-03-06T12:13:55.879Z,7.78
2023-03-06T12:15:18.803Z,7.72
2023-03-06T12:16:42.362Z,7.72
2023-03-06T12:17:50.447Z,7.92
2023-03-06T12:20:14.984Z,7.86
2023-03-06T12:21:06.238Z,8.01
2023-03-06T12:22:02.317Z,8.03
2023-03-06T12:24:25.921Z,7.95
2023-03-06T12:25:44.733Z,8.17
2023-03-06T12:27:01.160Z,8.19
2023-03-06T12:29:09.605Z,8.10
2023-03-06T12:31:43.161Z,7.94
2023-03-06T12:32:35.346Z,7.94
2023-03-06T12:33:58.992Z,8.03
2023-03-06T12:34:39.605Z,8.02
2023-03-06T12:35:46.337Z,8.02
2023-03-06T12:36:52.739Z,7.97
2023-03-06T12:39:52.309Z,8.03
2023-03-06T12:41:03.116Z,7.96
2023-03-06T12:42:23.442Z,7.98
2023-03-06T12:43:57.015Z,7.95
2023-03-06T12:44:36.746Z,8.01
2023-03-06T12:45:49.078Z,8.06
2023-03-06T12:47:48.197Z,8.13
2023-03-06T12:48:32.747Z,8.16
2023-03-06T12:49:31.844Z,8.13
2023-03-06T12:50:23.428Z,8.10
2023-03-06T12:51:11.590Z,8.07
2023-03-06T12:51:52.162Z,8.11
2023-03-06T12:52:39.217Z,8.14
2023-03-06T12:54:30.452Z,8.16
2023-03-06T12:56:13.757Z,8.10
2023-03-06T12:56:56.918Z,8.08
2023-03-06T12:58:52.621Z,8.05
2023-03-06T13:02:19.453Z,8.14
2023-03-06T13:04:43.966Z,8.15
2023-03-06T13:05:52.160Z,8.05
2023-03-06T13:06:54.323Z,8.03
2023-03-06T13:09:49.972Z,7.76
2023-03-06T13:11:32.788Z,7.62
2023-03-06T13:12:56.205Z,7.51
2023-03-06T13:15:42.964Z,7.44
2023-03-06T13:16:34.226Z,7.51
2023-03-06T13:17:38.647Z,7.62
2023-03-06T13:19:24.915Z,7.56
2023-03-06T13:20:18.406Z,7.59
2023-03-06T13:22:29.335Z,7.65
2023-03-06T13:23:31.211Z,7.59
2023-03-06T13:24:37.201Z,7.82
2023-03-06T13:26:49.979Z,7.84
2023-03-06T13:27:53.632Z,7.78
2023-03-06T13:29:13.668Z,7.72
2023-03-06T13:30:21.273Z,7.78
2023-03-06T13:32:14.786Z,7.78
2023-03-06T13:34:31.858Z,7.69
2023-03-06T13:35:48.298Z,7.72
2023-03-06T13:39:10.845Z,7.73
2023-03-06T13:40:15.485Z,7.74
2023-03-06T13:40:55.706Z,7.77
2023-03-06T13:41:57.245Z,7.80
2023-03-06T13:43:12.608Z,7.75
2023-03-06T13:44:26.022Z,7.82
2023-03-06T13:46:35.165Z,7.83
2023-03-06T13:47:17.754Z,7.81
2023-03-06T13:48:43.708Z,7.81
2023-03-06T13:49:26.160Z,7.93
2023-03-06T13:50:35.698Z,7.93
2023-03-06T13:51:24.780Z,7.93
2023-03-06T13:52:04.940Z,7.94
2023-03-06T13:52:57.455Z,8.01
2023-03-06T13:53:37.961Z,8.05
2023-03-06T13:56:59.268Z,8.16
2023-03-06T13:58:01.959Z,8.17
2023-03-06T13:59:14.234Z,8.05
2023-03-06T14:00:22.899Z,8.03
2023-03-06T14:01:50.165Z,8.11
2023-03-06T14:02:41.276Z,8.18
2023-03-06T14:05:18.649Z,8.16
2023-03-06T14:05:59.215Z,8.19
2023-03-06T14:06:49.715Z,8.27
2023-03-06T14:07:35.873Z,8.27
2023-03-06T14:08:32.354Z,8.27
2023-03-06T14:09:26.950Z,8.31
2023-03-06T14:10:13.925Z,8.39
2023-03-06T14:11:06.279Z,8.44
2023-03-06T14:11:55.117Z,8.51
2023-03-06T14:12:40.627Z,8.51
2023-03-06T14:13:34.945Z,8.55
2023-03-06T14:14:20.762Z,8.52
2023-03-06T14:15:26.202Z,8.54
2023-03-06T14:16:20.134Z,8.49
2023-03-06T14:17:05.374Z,8.50
2023-03-06T14:18:14.439Z,8.52
2023-03-06T14:19:17.628Z,8.54
2023-03-06T14:21:09.008Z,8.57
2023-03-06T14:22:16.562Z,8.57
2023-03-06T14:23:43.629Z,8.57
2023-03-06T14:24:47.110Z,8.53
2023-03-06T14:25:49.829Z,8.55
2023-03-06T14:26:41.528Z,8.52
2023-03-06T14:27:58.196Z,8.34
2023-03-06T14:29:28.909Z,8.44
2023-03-06T14:30:07.896Z,8.41
2023-03-06T14:30:52.163Z,8.44
2023-03-06T14:32:11.053Z,8.27
2023-03-06T14:32:52.810Z,8.20
2023-03-06T14:33:39.736Z,8.21
2023-03-06T14:34:19.844Z,8.16
2023-03-06T14:35:28.660Z,8.18
2023-03-06T14:36:09.039Z,8.12
2023-03-06T14:36:50.960Z,8.06
2023-03-06T14:37:40.320Z,8.01
2023-03-06T14:38:22.235Z,7.85
2023-03-06T14:39:27.879Z,7.86
2023-03-06T14:40:11.429Z,8.02
2023-03-06T14:42:15.273Z,8.05
2023-03-06T14:43:49.066Z,8.11
2023-03-06T14:44:31.483Z,8.10